sensor_id;sensor_type;location;lat;lon;timestamp;P1;durP1;ratioP1;P2;durP2;ratioP2
24799;SDS011;12897;50.812;4.430;2022-11-15T00:01:09;39.42;;;22.42;;
24799;SDS011;12897;50.812;4.430;2022-11-15T00:03:38;37.20;;;22.93;;
24799;SDS011;12897;50.812;4.430;2022-11-15T00:06:06;38.23;;;22.42;;
24799;SDS011;12897;50.812;4.430;2022-11-15T00:08:33;39.25;;;23.47;;
24799;SDS011;12897;50.812;4.430;2022-11-15T00:11:02;39.63;;;23.07;;
24799;SDS011;12897;50.812;4.430;2022-11-15T00:13:30;39.48;;;23.95;;
24799;SDS011;12897;50.812;4.430;2022-11-15T00:15:58;36.45;;;24.27;;
24799;SDS011;12897;50.812;4.430;2022-11-15T00:18:27;43.30;;;23.27;;
24799;SDS011;12897;50.812;4.430;2022-11-15T00:23:25;41.02;;;23.12;;
24799;SDS011;12897;50.812;4.430;2022-11-15T00:25:56;35.73;;;22.93;;
24799;SDS011;12897;50.812;4.430;2022-11-15T00:28:25;40.88;;;24.50;;
24799;SDS011;12897;50.812;4.430;2022-11-15T00:30:52;48.25;;;25.97;;
24799;SDS011;12897;50.812;4.430;2022-11-15T00:33:20;35.65;;;24.35;;
24799;SDS011;12897;50.812;4.430;2022-11-15T00:35:48;34.83;;;22.55;;
24799;SDS011;12897;50.812;4.430;2022-11-15T00:38:15;48.92;;;23.80;;
24799;SDS011;12897;50.812;4.430;2022-11-15T00:40:43;38.53;;;22.93;;
24799;SDS011;12897;50.812;4.430;2022-11-15T00:43:10;45.25;;;25.10;;
24799;SDS011;12897;50.812;4.430;2022-11-15T00:45:38;44.58;;;24.90;;
24799;SDS011;12897;50.812;4.430;2022-11-15T00:48:05;41.98;;;24.15;;
24799;SDS011;12897;50.812;4.430;2022-11-15T00:50:33;47.00;;;24.70;;
24799;SDS011;12897;50.812;4.430;2022-11-15T00:53:01;46.70;;;25.48;;
24799;SDS011;12897;50.812;4.430;2022-11-15T00:55:29;51.42;;;26.25;;
24799;SDS011;12897;50.812;4.430;2022-11-15T00:57:56;44.45;;;26.52;;
24799;SDS011;12897;50.812;4.430;2022-11-15T01:00:24;44.03;;;26.25;;
24799;SDS011;12897;50.812;4.430;2022-11-15T01:02:51;57.93;;;28.12;;
24799;SDS011;12897;50.812;4.430;2022-11-15T01:05:19;51.13;;;29.77;;
24799;SDS011;12897;50.812;4.430;2022-11-15T01:07:46;51.23;;;28.38;;
24799;SDS011;12897;50.812;4.430;2022-11-15T01:10:15;50.08;;;28.32;;
24799;SDS011;12897;50.812;4.430;2022-11-15T01:12:43;51.05;;;29.45;;
24799;SDS011;12897;50.812;4.430;2022-11-15T01:15:10;52.27;;;30.30;;
24799;SDS011;12897;50.812;4.430;2022-11-15T01:17:38;55.60;;;29.35;;
24799;SDS011;12897;50.812;4.430;2022-11-15T01:20:07;55.55;;;30.00;;
24799;SDS011;12897;50.812;4.430;2022-11-15T01:22:35;47.75;;;29.23;;
24799;SDS011;12897;50.812;4.430;2022-11-15T01:25:03;48.63;;;30.02;;
24799;SDS011;12897;50.812;4.430;2022-11-15T01:27:30;46.53;;;29.42;;
24799;SDS011;12897;50.812;4.430;2022-11-15T01:29:58;53.80;;;28.77;;
24799;SDS011;12897;50.812;4.430;2022-11-15T01:32:25;49.18;;;29.18;;
24799;SDS011;12897;50.812;4.430;2022-11-15T01:34:53;46.92;;;27.93;;
24799;SDS011;12897;50.812;4.430;2022-11-15T01:37:20;47.35;;;27.82;;
24799;SDS011;12897;50.812;4.430;2022-11-15T01:39:48;50.08;;;26.02;;
24799;SDS011;12897;50.812;4.430;2022-11-15T01:42:15;45.45;;;26.97;;
24799;SDS011;12897;50.812;4.430;2022-11-15T01:44:50;46.08;;;25.62;;
24799;SDS011;12897;50.812;4.430;2022-11-15T01:49:49;36.55;;;23.20;;
24799;SDS011;12897;50.812;4.430;2022-11-15T01:52:19;44.90;;;25.40;;
24799;SDS011;12897;50.812;4.430;2022-11-15T01:54:50;34.92;;;22.17;;
24799;SDS011;12897;50.812;4.430;2022-11-15T01:57:19;38.35;;;21.75;;
24799;SDS011;12897;50.812;4.430;2022-11-15T01:59:47;30.70;;;20.82;;
24799;SDS011;12897;50.812;4.430;2022-11-15T02:02:21;35.48;;;20.12;;
24799;SDS011;12897;50.812;4.430;2022-11-15T02:04:48;35.73;;;21.17;;
24799;SDS011;12897;50.812;4.430;2022-11-15T02:07:16;39.05;;;20.57;;
24799;SDS011;12897;50.812;4.430;2022-11-15T02:09:46;31.50;;;19.42;;
24799;SDS011;12897;50.812;4.430;2022-11-15T02:12:15;38.95;;;19.50;;
24799;SDS011;12897;50.812;4.430;2022-11-15T02:14:47;30.77;;;18.27;;
24799;SDS011;12897;50.812;4.430;2022-11-15T02:17:21;31.97;;;18.60;;
24799;SDS011;12897;50.812;4.430;2022-11-15T02:23:15;31.90;;;18.50;;
24799;SDS011;12897;50.812;4.430;2022-11-15T02:26:11;29.10;;;18.60;;
24799;SDS011;12897;50.812;4.430;2022-11-15T02:28:51;31.00;;;19.27;;
24799;SDS011;12897;50.812;4.430;2022-11-15T02:34:20;31.15;;;18.12;;
24799;SDS011;12897;50.812;4.430;2022-11-15T02:37:00;31.02;;;18.62;;
24799;SDS011;12897;50.812;4.430;2022-11-15T02:42:04;29.60;;;18.02;;
24799;SDS011;12897;50.812;4.430;2022-11-15T02:44:39;27.30;;;17.35;;
24799;SDS011;12897;50.812;4.430;2022-11-15T02:47:08;29.77;;;17.82;;
24799;SDS011;12897;50.812;4.430;2022-11-15T02:49:45;33.88;;;18.32;;
24799;SDS011;12897;50.812;4.430;2022-11-15T02:52:13;32.10;;;18.42;;
24799;SDS011;12897;50.812;4.430;2022-11-15T02:54:39;28.80;;;17.80;;
24799;SDS011;12897;50.812;4.430;2022-11-15T02:57:10;28.50;;;15.38;;
24799;SDS011;12897;50.812;4.430;2022-11-15T02:59:43;24.50;;;16.15;;
24799;SDS011;12897;50.812;4.430;2022-11-15T03:02:32;26.93;;;16.15;;
24799;SDS011;12897;50.812;4.430;2022-11-15T03:08:01;30.92;;;15.98;;
24799;SDS011;12897;50.812;4.430;2022-11-15T03:10:52;29.55;;;17.02;;
24799;SDS011;12897;50.812;4.430;2022-11-15T03:18:45;26.42;;;15.90;;
24799;SDS011;12897;50.812;4.430;2022-11-15T03:21:20;24.52;;;15.20;;
24799;SDS011;12897;50.812;4.430;2022-11-15T03:23:49;33.08;;;15.03;;
24799;SDS011;12897;50.812;4.430;2022-11-15T03:26:19;31.87;;;14.80;;
24799;SDS011;12897;50.812;4.430;2022-11-15T03:28:50;22.80;;;12.50;;
24799;SDS011;12897;50.812;4.430;2022-11-15T03:31:23;20.97;;;11.50;;
24799;SDS011;12897;50.812;4.430;2022-11-15T03:34:14;23.02;;;11.68;;
24799;SDS011;12897;50.812;4.430;2022-11-15T03:36:42;19.30;;;10.63;;
24799;SDS011;12897;50.812;4.430;2022-11-15T03:39:10;21.97;;;10.70;;
24799;SDS011;12897;50.812;4.430;2022-11-15T03:44:36;24.92;;;11.65;;
24799;SDS011;12897;50.812;4.430;2022-11-15T03:47:10;19.27;;;11.28;;
24799;SDS011;12897;50.812;4.430;2022-11-15T03:49:49;20.02;;;10.58;;
24799;SDS011;12897;50.812;4.430;2022-11-15T03:52:20;25.25;;;10.90;;
24799;SDS011;12897;50.812;4.430;2022-11-15T03:54:49;19.32;;;9.95;;
24799;SDS011;12897;50.812;4.430;2022-11-15T03:57:19;18.55;;;11.25;;
24799;SDS011;12897;50.812;4.430;2022-11-15T03:59:46;17.60;;;9.20;;
24799;SDS011;12897;50.812;4.430;2022-11-15T04:02:14;22.58;;;9.48;;
24799;SDS011;12897;50.812;4.430;2022-11-15T04:04:41;12.88;;;8.68;;
24799;SDS011;12897;50.812;4.430;2022-11-15T04:07:09;16.73;;;8.50;;
24799;SDS011;12897;50.812;4.430;2022-11-15T04:09:36;13.15;;;7.67;;
24799;SDS011;12897;50.812;4.430;2022-11-15T04:12:22;23.05;;;8.68;;
24799;SDS011;12897;50.812;4.430;2022-11-15T04:14:51;16.33;;;8.20;;
24799;SDS011;12897;50.812;4.430;2022-11-15T04:17:20;16.75;;;8.28;;
24799;SDS011;12897;50.812;4.430;2022-11-15T04:19:48;16.65;;;8.78;;
24799;SDS011;12897;50.812;4.430;2022-11-15T04:22:33;16.20;;;8.10;;
24799;SDS011;12897;50.812;4.430;2022-11-15T04:25:18;17.60;;;9.68;;
24799;SDS011;12897;50.812;4.430;2022-11-15T04:27:46;18.57;;;9.80;;
24799;SDS011;12897;50.812;4.430;2022-11-15T04:30:13;21.73;;;10.75;;
24799;SDS011;12897;50.812;4.430;2022-11-15T04:32:41;18.55;;;10.40;;
24799;SDS011;12897;50.812;4.430;2022-11-15T04:35:09;20.50;;;10.82;;
24799;SDS011;12897;50.812;4.430;2022-11-15T04:37:37;19.05;;;11.10;;
24799;SDS011;12897;50.812;4.430;2022-11-15T04:40:05;21.60;;;11.20;;
24799;SDS011;12897;50.812;4.430;2022-11-15T04:42:34;22.73;;;10.25;;
24799;SDS011;12897;50.812;4.430;2022-11-15T04:45:03;19.57;;;10.10;;
24799;SDS011;12897;50.812;4.430;2022-11-15T04:47:31;17.55;;;9.43;;
24799;SDS011;12897;50.812;4.430;2022-11-15T04:49:58;24.15;;;10.10;;
24799;SDS011;12897;50.812;4.430;2022-11-15T04:52:26;24.57;;;9.78;;
24799;SDS011;12897;50.812;4.430;2022-11-15T04:54:53;24.55;;;10.10;;
24799;SDS011;12897;50.812;4.430;2022-11-15T05:00:09;19.02;;;8.43;;
24799;SDS011;12897;50.812;4.430;2022-11-15T05:02:39;18.30;;;9.28;;
24799;SDS011;12897;50.812;4.430;2022-11-15T05:05:24;17.25;;;7.80;;
24799;SDS011;12897;50.812;4.430;2022-11-15T05:07:52;14.75;;;8.43;;
24799;SDS011;12897;50.812;4.430;2022-11-15T05:10:20;16.50;;;8.38;;
24799;SDS011;12897;50.812;4.430;2022-11-15T05:12:47;15.38;;;7.67;;
24799;SDS011;12897;50.812;4.430;2022-11-15T05:15:15;21.45;;;7.62;;
24799;SDS011;12897;50.812;4.430;2022-11-15T05:17:42;17.73;;;7.25;;
24799;SDS011;12897;50.812;4.430;2022-11-15T05:20:10;14.50;;;6.92;;
24799;SDS011;12897;50.812;4.430;2022-11-15T05:22:38;16.07;;;6.83;;
24799;SDS011;12897;50.812;4.430;2022-11-15T05:25:06;18.25;;;6.83;;
24799;SDS011;12897;50.812;4.430;2022-11-15T05:27:34;20.40;;;6.70;;
24799;SDS011;12897;50.812;4.430;2022-11-15T05:30:02;15.85;;;6.87;;
24799;SDS011;12897;50.812;4.430;2022-11-15T05:32:30;16.80;;;7.28;;
24799;SDS011;12897;50.812;4.430;2022-11-15T05:34:58;13.30;;;5.78;;
24799;SDS011;12897;50.812;4.430;2022-11-15T05:37:26;17.40;;;6.72;;
24799;SDS011;12897;50.812;4.430;2022-11-15T05:39:55;15.63;;;5.97;;
24799;SDS011;12897;50.812;4.430;2022-11-15T05:42:22;15.90;;;7.05;;
24799;SDS011;12897;50.812;4.430;2022-11-15T05:44:52;12.85;;;6.70;;
24799;SDS011;12897;50.812;4.430;2022-11-15T05:47:21;17.25;;;7.22;;
24799;SDS011;12897;50.812;4.430;2022-11-15T05:49:51;16.62;;;8.38;;
24799;SDS011;12897;50.812;4.430;2022-11-15T05:52:21;21.65;;;7.58;;
24799;SDS011;12897;50.812;4.430;2022-11-15T05:54:50;19.82;;;6.25;;
24799;SDS011;12897;50.812;4.430;2022-11-15T05:57:19;19.55;;;6.75;;
24799;SDS011;12897;50.812;4.430;2022-11-15T05:59:48;15.13;;;7.22;;
24799;SDS011;12897;50.812;4.430;2022-11-15T06:02:16;17.10;;;7.72;;
24799;SDS011;12897;50.812;4.430;2022-11-15T06:04:44;18.27;;;6.58;;
24799;SDS011;12897;50.812;4.430;2022-11-15T06:07:11;17.85;;;7.65;;
24799;SDS011;12897;50.812;4.430;2022-11-15T06:09:39;17.52;;;7.35;;
24799;SDS011;12897;50.812;4.430;2022-11-15T06:12:06;23.32;;;7.37;;
24799;SDS011;12897;50.812;4.430;2022-11-15T06:14:34;19.85;;;7.75;;
24799;SDS011;12897;50.812;4.430;2022-11-15T06:17:01;17.52;;;8.20;;
24799;SDS011;12897;50.812;4.430;2022-11-15T06:19:29;22.35;;;8.05;;
24799;SDS011;12897;50.812;4.430;2022-11-15T06:21:59;18.77;;;7.87;;
24799;SDS011;12897;50.812;4.430;2022-11-15T06:24:28;21.17;;;8.40;;
24799;SDS011;12897;50.812;4.430;2022-11-15T06:26:55;15.90;;;6.80;;
24799;SDS011;12897;50.812;4.430;2022-11-15T06:29:23;20.02;;;7.33;;
24799;SDS011;12897;50.812;4.430;2022-11-15T06:31:51;22.13;;;8.10;;
24799;SDS011;12897;50.812;4.430;2022-11-15T06:34:19;18.48;;;6.80;;
24799;SDS011;12897;50.812;4.430;2022-11-15T06:36:46;18.77;;;7.80;;
24799;SDS011;12897;50.812;4.430;2022-11-15T06:39:15;14.93;;;6.58;;
24799;SDS011;12897;50.812;4.430;2022-11-15T06:41:42;16.82;;;6.58;;
24799;SDS011;12897;50.812;4.430;2022-11-15T06:44:10;19.45;;;6.90;;
24799;SDS011;12897;50.812;4.430;2022-11-15T06:46:37;22.95;;;6.85;;
24799;SDS011;12897;50.812;4.430;2022-11-15T06:49:05;12.88;;;5.80;;
24799;SDS011;12897;50.812;4.430;2022-11-15T06:51:32;17.27;;;6.97;;
24799;SDS011;12897;50.812;4.430;2022-11-15T06:54:00;14.25;;;6.75;;
24799;SDS011;12897;50.812;4.430;2022-11-15T06:56:27;19.82;;;7.50;;
24799;SDS011;12897;50.812;4.430;2022-11-15T06:58:55;21.00;;;7.72;;
24799;SDS011;12897;50.812;4.430;2022-11-15T07:01:22;15.50;;;7.08;;
24799;SDS011;12897;50.812;4.430;2022-11-15T07:03:50;21.37;;;6.72;;
24799;SDS011;12897;50.812;4.430;2022-11-15T07:06:18;21.70;;;12.68;;
24799;SDS011;12897;50.812;4.430;2022-11-15T07:08:45;12.85;;;6.80;;
24799;SDS011;12897;50.812;4.430;2022-11-15T07:11:14;13.48;;;6.70;;
24799;SDS011;12897;50.812;4.430;2022-11-15T07:13:41;19.73;;;7.47;;
24799;SDS011;12897;50.812;4.430;2022-11-15T07:16:09;18.42;;;7.45;;
24799;SDS011;12897;50.812;4.430;2022-11-15T07:18:38;16.82;;;7.72;;
24799;SDS011;12897;50.812;4.430;2022-11-15T07:21:08;15.50;;;7.50;;
24799;SDS011;12897;50.812;4.430;2022-11-15T07:23:38;17.27;;;7.00;;
24799;SDS011;12897;50.812;4.430;2022-11-15T07:26:06;18.73;;;7.60;;
24799;SDS011;12897;50.812;4.430;2022-11-15T07:28:35;21.57;;;7.33;;
24799;SDS011;12897;50.812;4.430;2022-11-15T07:31:03;19.55;;;6.90;;
24799;SDS011;12897;50.812;4.430;2022-11-15T07:33:31;14.87;;;6.58;;
24799;SDS011;12897;50.812;4.430;2022-11-15T07:36:00;13.93;;;6.97;;
24799;SDS011;12897;50.812;4.430;2022-11-15T07:38:28;12.50;;;6.53;;
24799;SDS011;12897;50.812;4.430;2022-11-15T07:40:57;10.68;;;6.28;;
24799;SDS011;12897;50.812;4.430;2022-11-15T07:43:29;16.12;;;6.70;;
24799;SDS011;12897;50.812;4.430;2022-11-15T07:45:58;14.23;;;7.60;;
24799;SDS011;12897;50.812;4.430;2022-11-15T07:48:27;15.30;;;6.50;;
24799;SDS011;12897;50.812;4.430;2022-11-15T07:50:55;13.35;;;6.30;;
24799;SDS011;12897;50.812;4.430;2022-11-15T07:53:22;14.75;;;6.47;;
24799;SDS011;12897;50.812;4.430;2022-11-15T07:55:50;13.70;;;6.10;;
24799;SDS011;12897;50.812;4.430;2022-11-15T07:58:19;14.98;;;6.08;;
24799;SDS011;12897;50.812;4.430;2022-11-15T08:00:46;18.60;;;5.95;;
24799;SDS011;12897;50.812;4.430;2022-11-15T08:03:15;14.20;;;5.25;;
24799;SDS011;12897;50.812;4.430;2022-11-15T08:05:43;8.90;;;5.33;;
24799;SDS011;12897;50.812;4.430;2022-11-15T08:08:14;15.03;;;5.45;;
24799;SDS011;12897;50.812;4.430;2022-11-15T08:10:41;12.53;;;5.55;;
24799;SDS011;12897;50.812;4.430;2022-11-15T08:13:09;9.23;;;5.45;;
24799;SDS011;12897;50.812;4.430;2022-11-15T08:15:39;11.10;;;4.43;;
24799;SDS011;12897;50.812;4.430;2022-11-15T08:18:09;15.85;;;4.95;;
24799;SDS011;12897;50.812;4.430;2022-11-15T08:20:38;9.35;;;4.25;;
24799;SDS011;12897;50.812;4.430;2022-11-15T08:23:06;9.35;;;4.05;;
24799;SDS011;12897;50.812;4.430;2022-11-15T08:25:34;14.38;;;3.80;;
24799;SDS011;12897;50.812;4.430;2022-11-15T08:28:03;7.58;;;3.77;;
24799;SDS011;12897;50.812;4.430;2022-11-15T08:30:40;14.10;;;3.72;;
24799;SDS011;12897;50.812;4.430;2022-11-15T08:33:11;8.55;;;3.50;;
24799;SDS011;12897;50.812;4.430;2022-11-15T08:35:40;14.95;;;3.65;;
24799;SDS011;12897;50.812;4.430;2022-11-15T08:38:08;10.80;;;4.03;;
24799;SDS011;12897;50.812;4.430;2022-11-15T08:40:36;11.08;;;3.37;;
24799;SDS011;12897;50.812;4.430;2022-11-15T08:43:04;8.48;;;3.77;;
24799;SDS011;12897;50.812;4.430;2022-11-15T08:45:33;6.72;;;3.30;;
24799;SDS011;12897;50.812;4.430;2022-11-15T08:48:02;15.60;;;3.72;;
24799;SDS011;12897;50.812;4.430;2022-11-15T08:53:05;9.60;;;3.10;;
24799;SDS011;12897;50.812;4.430;2022-11-15T08:55:37;15.32;;;3.47;;
24799;SDS011;12897;50.812;4.430;2022-11-15T08:58:07;16.10;;;2.90;;
24799;SDS011;12897;50.812;4.430;2022-11-15T09:00:34;9.83;;;2.45;;
24799;SDS011;12897;50.812;4.430;2022-11-15T09:03:06;13.70;;;3.00;;
24799;SDS011;12897;50.812;4.430;2022-11-15T09:05:35;10.48;;;2.85;;
24799;SDS011;12897;50.812;4.430;2022-11-15T09:08:06;17.85;;;3.62;;
24799;SDS011;12897;50.812;4.430;2022-11-15T09:10:34;12.23;;;2.95;;
24799;SDS011;12897;50.812;4.430;2022-11-15T09:13:02;20.32;;;3.40;;
24799;SDS011;12897;50.812;4.430;2022-11-15T09:15:29;17.62;;;3.72;;
24799;SDS011;12897;50.812;4.430;2022-11-15T09:18:00;16.40;;;3.77;;
24799;SDS011;12897;50.812;4.430;2022-11-15T09:20:27;11.48;;;3.30;;
24799;SDS011;12897;50.812;4.430;2022-11-15T09:22:58;8.73;;;3.00;;
24799;SDS011;12897;50.812;4.430;2022-11-15T09:25:28;11.97;;;2.50;;
24799;SDS011;12897;50.812;4.430;2022-11-15T09:27:56;11.53;;;2.40;;
24799;SDS011;12897;50.812;4.430;2022-11-15T09:30:24;11.28;;;2.40;;
24799;SDS011;12897;50.812;4.430;2022-11-15T09:32:52;10.50;;;2.25;;
24799;SDS011;12897;50.812;4.430;2022-11-15T09:35:19;17.85;;;3.65;;
24799;SDS011;12897;50.812;4.430;2022-11-15T09:37:47;11.85;;;2.40;;
24799;SDS011;12897;50.812;4.430;2022-11-15T09:40:14;30.55;;;3.22;;
24799;SDS011;12897;50.812;4.430;2022-11-15T09:45:50;22.87;;;3.08;;
24799;SDS011;12897;50.812;4.430;2022-11-15T09:48:25;9.68;;;2.22;;
24799;SDS011;12897;50.812;4.430;2022-11-15T09:50:52;32.55;;;4.03;;
24799;SDS011;12897;50.812;4.430;2022-11-15T09:53:48;10.08;;;1.95;;
24799;SDS011;12897;50.812;4.430;2022-11-15T09:56:03;15.60;;;2.10;;
24799;SDS011;12897;50.812;4.430;2022-11-15T10:01:22;13.95;;;2.25;;
24799;SDS011;12897;50.812;4.430;2022-11-15T10:03:45;15.63;;;2.65;;
24799;SDS011;12897;50.812;4.430;2022-11-15T10:06:17;25.72;;;3.67;;
24799;SDS011;12897;50.812;4.430;2022-11-15T10:08:51;31.77;;;4.80;;
24799;SDS011;12897;50.812;4.430;2022-11-15T10:11:23;15.07;;;2.50;;
24799;SDS011;12897;50.812;4.430;2022-11-15T10:13:58;27.87;;;3.62;;
24799;SDS011;12897;50.812;4.430;2022-11-15T10:16:37;10.98;;;2.22;;
24799;SDS011;12897;50.812;4.430;2022-11-15T10:24:43;13.08;;;2.98;;
24799;SDS011;12897;50.812;4.430;2022-11-15T10:27:14;18.07;;;3.17;;
24799;SDS011;12897;50.812;4.430;2022-11-15T10:29:45;16.00;;;1.98;;
24799;SDS011;12897;50.812;4.430;2022-11-15T10:32:15;16.40;;;2.55;;
24799;SDS011;12897;50.812;4.430;2022-11-15T10:34:45;10.48;;;2.37;;
24799;SDS011;12897;50.812;4.430;2022-11-15T10:37:13;12.20;;;2.60;;
24799;SDS011;12897;50.812;4.430;2022-11-15T10:39:42;16.73;;;2.40;;
24799;SDS011;12897;50.812;4.430;2022-11-15T10:42:25;12.63;;;2.37;;
24799;SDS011;12897;50.812;4.430;2022-11-15T10:44:51;11.22;;;1.90;;
24799;SDS011;12897;50.812;4.430;2022-11-15T10:47:20;12.45;;;2.47;;
24799;SDS011;12897;50.812;4.430;2022-11-15T10:49:54;25.45;;;3.17;;
24799;SDS011;12897;50.812;4.430;2022-11-15T10:52:23;20.15;;;2.83;;
24799;SDS011;12897;50.812;4.430;2022-11-15T10:55:00;16.60;;;2.60;;
24799;SDS011;12897;50.812;4.430;2022-11-15T10:57:26;64.65;;;6.25;;
24799;SDS011;12897;50.812;4.430;2022-11-15T10:59:56;14.33;;;2.40;;
24799;SDS011;12897;50.812;4.430;2022-11-15T11:02:30;19.95;;;2.50;;
24799;SDS011;12897;50.812;4.430;2022-11-15T11:04:59;15.25;;;2.00;;
24799;SDS011;12897;50.812;4.430;2022-11-15T11:07:29;14.05;;;2.40;;
24799;SDS011;12897;50.812;4.430;2022-11-15T11:10:32;9.05;;;2.37;;
24799;SDS011;12897;50.812;4.430;2022-11-15T11:12:47;7.03;;;1.70;;
24799;SDS011;12897;50.812;4.430;2022-11-15T11:15:15;12.45;;;2.08;;
24799;SDS011;12897;50.812;4.430;2022-11-15T11:23:34;12.53;;;1.90;;
24799;SDS011;12897;50.812;4.430;2022-11-15T11:26:00;12.13;;;2.00;;
24799;SDS011;12897;50.812;4.430;2022-11-15T11:31:29;12.35;;;2.20;;
24799;SDS011;12897;50.812;4.430;2022-11-15T11:42:58;15.50;;;1.95;;
24799;SDS011;12897;50.812;4.430;2022-11-15T11:48:36;13.58;;;1.80;;
24799;SDS011;12897;50.812;4.430;2022-11-15T11:51:13;26.68;;;5.35;;
24799;SDS011;12897;50.812;4.430;2022-11-15T11:54:34;13.40;;;2.40;;
24799;SDS011;12897;50.812;4.430;2022-11-15T11:56:28;10.50;;;1.87;;
24799;SDS011;12897;50.812;4.430;2022-11-15T11:59:04;15.43;;;1.85;;
24799;SDS011;12897;50.812;4.430;2022-11-15T12:01:35;17.27;;;2.20;;
24799;SDS011;12897;50.812;4.430;2022-11-15T12:04:13;8.73;;;1.90;;
24799;SDS011;12897;50.812;4.430;2022-11-15T12:06:51;18.87;;;1.90;;
24799;SDS011;12897;50.812;4.430;2022-11-15T12:09:30;13.35;;;2.40;;
24799;SDS011;12897;50.812;4.430;2022-11-15T12:12:17;5.58;;;1.98;;
24799;SDS011;12897;50.812;4.430;2022-11-15T12:14:46;17.62;;;1.45;;
24799;SDS011;12897;50.812;4.430;2022-11-15T12:17:17;12.05;;;1.45;;
24799;SDS011;12897;50.812;4.430;2022-11-15T12:19:46;12.28;;;1.85;;
24799;SDS011;12897;50.812;4.430;2022-11-15T12:22:22;9.58;;;1.67;;
24799;SDS011;12897;50.812;4.430;2022-11-15T12:25:00;9.53;;;2.00;;
24799;SDS011;12897;50.812;4.430;2022-11-15T12:30:14;5.78;;;1.57;;
24799;SDS011;12897;50.812;4.430;2022-11-15T12:33:17;8.43;;;1.70;;
24799;SDS011;12897;50.812;4.430;2022-11-15T12:35:44;11.08;;;1.75;;
24799;SDS011;12897;50.812;4.430;2022-11-15T12:38:08;9.58;;;1.67;;
24799;SDS011;12897;50.812;4.430;2022-11-15T12:40:39;21.15;;;3.25;;
24799;SDS011;12897;50.812;4.430;2022-11-15T12:45:45;6.62;;;1.45;;
24799;SDS011;12897;50.812;4.430;2022-11-15T12:58:47;7.37;;;1.62;;
24799;SDS011;12897;50.812;4.430;2022-11-15T13:07:03;6.78;;;1.80;;
24799;SDS011;12897;50.812;4.430;2022-11-15T13:15:00;26.70;;;2.85;;
24799;SDS011;12897;50.812;4.430;2022-11-15T13:20:00;7.97;;;1.98;;
24799;SDS011;12897;50.812;4.430;2022-11-15T13:22:38;8.55;;;2.08;;
24799;SDS011;12897;50.812;4.430;2022-11-15T13:30:53;13.13;;;2.52;;
24799;SDS011;12897;50.812;4.430;2022-11-15T13:33:32;10.32;;;1.90;;
24799;SDS011;12897;50.812;4.430;2022-11-15T13:36:07;10.82;;;1.90;;
24799;SDS011;12897;50.812;4.430;2022-11-15T13:38:37;7.90;;;1.85;;
24799;SDS011;12897;50.812;4.430;2022-11-15T13:41:16;8.43;;;1.77;;
24799;SDS011;12897;50.812;4.430;2022-11-15T13:43:42;8.85;;;2.30;;
24799;SDS011;12897;50.812;4.430;2022-11-15T13:46:11;8.48;;;2.00;;
24799;SDS011;12897;50.812;4.430;2022-11-15T13:48:50;10.85;;;2.58;;
24799;SDS011;12897;50.812;4.430;2022-11-15T13:51:23;6.53;;;2.00;;
24799;SDS011;12897;50.812;4.430;2022-11-15T13:54:10;4.03;;;1.72;;
24799;SDS011;12897;50.812;4.430;2022-11-15T13:56:42;12.78;;;2.22;;
24799;SDS011;12897;50.812;4.430;2022-11-15T13:59:16;23.73;;;2.92;;
24799;SDS011;12897;50.812;4.430;2022-11-15T14:01:44;12.45;;;2.22;;
24799;SDS011;12897;50.812;4.430;2022-11-15T14:04:13;6.50;;;2.22;;
24799;SDS011;12897;50.812;4.430;2022-11-15T14:06:47;78.78;;;9.23;;
24799;SDS011;12897;50.812;4.430;2022-11-15T14:09:24;19.98;;;3.00;;
24799;SDS011;12897;50.812;4.430;2022-11-15T14:11:59;5.40;;;2.05;;
24799;SDS011;12897;50.812;4.430;2022-11-15T14:14:28;7.62;;;1.85;;
24799;SDS011;12897;50.812;4.430;2022-11-15T14:24:41;8.78;;;2.15;;
24799;SDS011;12897;50.812;4.430;2022-11-15T14:27:26;5.17;;;1.90;;
24799;SDS011;12897;50.812;4.430;2022-11-15T14:29:55;5.62;;;2.08;;
24799;SDS011;12897;50.812;4.430;2022-11-15T14:32:23;4.00;;;2.00;;
24799;SDS011;12897;50.812;4.430;2022-11-15T14:34:59;5.75;;;1.92;;
24799;SDS011;12897;50.812;4.430;2022-11-15T14:37:28;5.95;;;2.10;;
24799;SDS011;12897;50.812;4.430;2022-11-15T14:40:03;8.13;;;3.60;;
24799;SDS011;12897;50.812;4.430;2022-11-15T14:42:32;9.38;;;2.22;;
24799;SDS011;12897;50.812;4.430;2022-11-15T14:44:59;7.08;;;2.70;;
24799;SDS011;12897;50.812;4.430;2022-11-15T14:47:28;6.08;;;2.37;;
24799;SDS011;12897;50.812;4.430;2022-11-15T14:49:55;4.28;;;2.05;;
24799;SDS011;12897;50.812;4.430;2022-11-15T14:52:27;6.80;;;2.25;;
24799;SDS011;12897;50.812;4.430;2022-11-15T14:54:59;7.12;;;2.40;;
24799;SDS011;12897;50.812;4.430;2022-11-15T14:59:55;5.87;;;2.60;;
24799;SDS011;12897;50.812;4.430;2022-11-15T15:02:41;6.75;;;2.40;;
24799;SDS011;12897;50.812;4.430;2022-11-15T15:05:07;5.47;;;2.90;;
24799;SDS011;12897;50.812;4.430;2022-11-15T15:07:27;6.97;;;2.40;;
24799;SDS011;12897;50.812;4.430;2022-11-15T15:12:30;9.15;;;2.70;;
24799;SDS011;12897;50.812;4.430;2022-11-15T15:14:56;6.10;;;2.47;;
24799;SDS011;12897;50.812;4.430;2022-11-15T15:17:34;6.75;;;2.87;;
24799;SDS011;12897;50.812;4.430;2022-11-15T15:20:06;4.67;;;2.40;;
24799;SDS011;12897;50.812;4.430;2022-11-15T15:22:34;5.78;;;2.70;;
24799;SDS011;12897;50.812;4.430;2022-11-15T15:25:29;17.10;;;3.30;;
24799;SDS011;12897;50.812;4.430;2022-11-15T15:27:40;7.65;;;2.50;;
24799;SDS011;12897;50.812;4.430;2022-11-15T15:30:10;7.20;;;2.92;;
24799;SDS011;12897;50.812;4.430;2022-11-15T15:32:38;7.30;;;3.35;;
24799;SDS011;12897;50.812;4.430;2022-11-15T15:35:07;9.63;;;3.00;;
24799;SDS011;12897;50.812;4.430;2022-11-15T15:37:42;6.78;;;2.70;;
24799;SDS011;12897;50.812;4.430;2022-11-15T15:40:16;8.15;;;3.15;;
24799;SDS011;12897;50.812;4.430;2022-11-15T15:42:48;9.58;;;3.45;;
24799;SDS011;12897;50.812;4.430;2022-11-15T15:45:22;6.35;;;3.17;;
24799;SDS011;12897;50.812;4.430;2022-11-15T15:47:53;5.47;;;2.65;;
24799;SDS011;12897;50.812;4.430;2022-11-15T15:53:07;10.40;;;3.25;;
24799;SDS011;12897;50.812;4.430;2022-11-15T15:55:43;7.80;;;3.10;;
24799;SDS011;12897;50.812;4.430;2022-11-15T15:58:11;7.65;;;2.77;;
24799;SDS011;12897;50.812;4.430;2022-11-15T16:00:39;12.88;;;6.55;;
24799;SDS011;12897;50.812;4.430;2022-11-15T16:03:09;8.60;;;3.60;;
24799;SDS011;12897;50.812;4.430;2022-11-15T16:05:37;6.58;;;3.55;;
24799;SDS011;12897;50.812;4.430;2022-11-15T16:08:05;8.83;;;3.30;;
24799;SDS011;12897;50.812;4.430;2022-11-15T16:10:35;8.90;;;4.78;;
24799;SDS011;12897;50.812;4.430;2022-11-15T16:13:02;9.70;;;3.47;;
24799;SDS011;12897;50.812;4.430;2022-11-15T16:15:31;9.38;;;3.62;;
24799;SDS011;12897;50.812;4.430;2022-11-15T16:18:08;12.43;;;4.10;;
24799;SDS011;12897;50.812;4.430;2022-11-15T16:20:48;6.10;;;3.85;;
24799;SDS011;12897;50.812;4.430;2022-11-15T16:23:20;9.45;;;4.00;;
24799;SDS011;12897;50.812;4.430;2022-11-15T16:26:09;6.75;;;4.00;;
24799;SDS011;12897;50.812;4.430;2022-11-15T16:28:40;8.30;;;3.95;;
24799;SDS011;12897;50.812;4.430;2022-11-15T16:31:10;6.83;;;4.30;;
24799;SDS011;12897;50.812;4.430;2022-11-15T16:33:39;10.30;;;4.33;;
24799;SDS011;12897;50.812;4.430;2022-11-15T16:36:23;11.35;;;4.62;;
24799;SDS011;12897;50.812;4.430;2022-11-15T16:38:54;8.25;;;3.30;;
24799;SDS011;12897;50.812;4.430;2022-11-15T16:41:26;9.40;;;4.20;;
24799;SDS011;12897;50.812;4.430;2022-11-15T16:44:05;5.30;;;3.52;;
24799;SDS011;12897;50.812;4.430;2022-11-15T16:46:26;6.58;;;3.87;;